sensor_id;sensor_type;location;lat;lon;timestamp;P1;durP1;ratioP1;P2;durP2;ratioP2
44854;SDS011;30591;48.228;16.398;2023-02-17T00:01:26;37.23;;;19.33;;
44854;SDS011;30591;48.228;16.398;2023-02-17T00:03:56;30.77;;;18.40;;
44854;SDS011;30591;48.228;16.398;2023-02-17T00:06:25;31.70;;;17.30;;
44854;SDS011;30591;48.228;16.398;2023-02-17T00:08:54;29.47;;;16.53;;
44854;SDS011;30591;48.228;16.398;2023-02-17T00:11:22;30.43;;;17.07;;
44854;SDS011;30591;48.228;16.398;2023-02-17T00:13:50;31.40;;;17.40;;
44854;SDS011;30591;48.228;16.398;2023-02-17T00:16:22;35.47;;;17.53;;
44854;SDS011;30591;48.228;16.398;2023-02-17T00:18:52;32.00;;;17.63;;
44854;SDS011;30591;48.228;16.398;2023-02-17T00:21:22;31.97;;;18.20;;
44854;SDS011;30591;48.228;16.398;2023-02-17T00:23:52;31.63;;;17.67;;
44854;SDS011;30591;48.228;16.398;2023-02-17T00:26:20;30.60;;;16.63;;
44854;SDS011;30591;48.228;16.398;2023-02-17T00:28:48;33.23;;;18.33;;
44854;SDS011;30591;48.228;16.398;2023-02-17T00:31:17;34.40;;;18.37;;
44854;SDS011;30591;48.228;16.398;2023-02-17T00:33:46;32.73;;;17.57;;
44854;SDS011;30591;48.228;16.398;2023-02-17T00:36:15;33.33;;;18.97;;
44854;SDS011;30591;48.228;16.398;2023-02-17T00:38:44;35.57;;;18.73;;
44854;SDS011;30591;48.228;16.398;2023-02-17T00:41:16;32.37;;;17.53;;
44854;SDS011;30591;48.228;16.398;2023-02-17T00:43:44;35.13;;;18.70;;
44854;SDS011;30591;48.228;16.398;2023-02-17T00:46:14;36.67;;;18.50;;
44854;SDS011;30591;48.228;16.398;2023-02-17T00:48:43;31.77;;;17.93;;
44854;SDS011;30591;48.228;16.398;2023-02-17T00:51:12;33.33;;;18.80;;
44854;SDS011;30591;48.228;16.398;2023-02-17T00:53:41;31.67;;;17.20;;
44854;SDS011;30591;48.228;16.398;2023-02-17T00:56:09;31.67;;;18.13;;
44854;SDS011;30591;48.228;16.398;2023-02-17T00:58:37;35.17;;;17.77;;
44854;SDS011;30591;48.228;16.398;2023-02-17T01:01:07;32.03;;;18.33;;
44854;SDS011;30591;48.228;16.398;2023-02-17T01:03:38;31.93;;;17.80;;
44854;SDS011;30591;48.228;16.398;2023-02-17T01:06:09;35.53;;;17.63;;
44854;SDS011;30591;48.228;16.398;2023-02-17T01:08:40;36.50;;;18.27;;
44854;SDS011;30591;48.228;16.398;2023-02-17T01:11:15;29.03;;;17.30;;
44854;SDS011;30591;48.228;16.398;2023-02-17T01:13:43;37.00;;;18.67;;
44854;SDS011;30591;48.228;16.398;2023-02-17T01:16:18;34.07;;;17.73;;
44854;SDS011;30591;48.228;16.398;2023-02-17T01:18:48;35.10;;;18.73;;
44854;SDS011;30591;48.228;16.398;2023-02-17T01:21:22;35.67;;;19.80;;
44854;SDS011;30591;48.228;16.398;2023-02-17T01:23:52;32.87;;;18.30;;
44854;SDS011;30591;48.228;16.398;2023-02-17T01:26:22;32.97;;;18.63;;
44854;SDS011;30591;48.228;16.398;2023-02-17T01:28:52;31.63;;;18.07;;
44854;SDS011;30591;48.228;16.398;2023-02-17T01:31:21;36.00;;;20.23;;
44854;SDS011;30591;48.228;16.398;2023-02-17T01:33:49;31.77;;;18.07;;
44854;SDS011;30591;48.228;16.398;2023-02-17T01:36:17;30.67;;;17.67;;
44854;SDS011;30591;48.228;16.398;2023-02-17T01:38:46;33.57;;;19.80;;
44854;SDS011;30591;48.228;16.398;2023-02-17T01:41:17;32.80;;;19.50;;
44854;SDS011;30591;48.228;16.398;2023-02-17T01:44:02;34.60;;;18.70;;
44854;SDS011;30591;48.228;16.398;2023-02-17T01:46:45;34.53;;;19.87;;
44854;SDS011;30591;48.228;16.398;2023-02-17T01:49:32;38.17;;;20.40;;
44854;SDS011;30591;48.228;16.398;2023-02-17T01:52:14;34.80;;;19.67;;
44854;SDS011;30591;48.228;16.398;2023-02-17T01:54:48;36.13;;;20.33;;
44854;SDS011;30591;48.228;16.398;2023-02-17T01:57:21;40.50;;;21.60;;
44854;SDS011;30591;48.228;16.398;2023-02-17T01:59:52;36.47;;;19.13;;
44854;SDS011;30591;48.228;16.398;2023-02-17T02:02:19;41.20;;;21.30;;
44854;SDS011;30591;48.228;16.398;2023-02-17T02:04:50;39.40;;;21.37;;
44854;SDS011;30591;48.228;16.398;2023-02-17T02:07:20;40.43;;;21.83;;
44854;SDS011;30591;48.228;16.398;2023-02-17T02:09:55;39.10;;;21.33;;
44854;SDS011;30591;48.228;16.398;2023-02-17T02:12:32;41.03;;;22.33;;
44854;SDS011;30591;48.228;16.398;2023-02-17T02:15:02;41.33;;;20.87;;
44854;SDS011;30591;48.228;16.398;2023-02-17T02:17:46;43.90;;;22.67;;
44854;SDS011;30591;48.228;16.398;2023-02-17T02:34:46;46.67;;;22.60;;
44854;SDS011;30591;48.228;16.398;2023-02-17T02:37:25;48.77;;;23.40;;
44854;SDS011;30591;48.228;16.398;2023-02-17T02:40:03;50.97;;;25.30;;
44854;SDS011;30591;48.228;16.398;2023-02-17T02:42:36;55.73;;;27.47;;
44854;SDS011;30591;48.228;16.398;2023-02-17T02:45:07;62.67;;;28.57;;
44854;SDS011;30591;48.228;16.398;2023-02-17T02:50:14;59.10;;;28.67;;
44854;SDS011;30591;48.228;16.398;2023-02-17T02:53:08;60.50;;;29.77;;
44854;SDS011;30591;48.228;16.398;2023-02-17T02:58:26;56.83;;;27.50;;
44854;SDS011;30591;48.228;16.398;2023-02-17T03:01:01;55.73;;;26.90;;
44854;SDS011;30591;48.228;16.398;2023-02-17T03:03:34;58.07;;;26.93;;
44854;SDS011;30591;48.228;16.398;2023-02-17T03:06:21;50.63;;;25.93;;
44854;SDS011;30591;48.228;16.398;2023-02-17T03:09:04;50.23;;;24.37;;
44854;SDS011;30591;48.228;16.398;2023-02-17T03:11:36;50.63;;;25.03;;
44854;SDS011;30591;48.228;16.398;2023-02-17T03:14:07;47.73;;;24.53;;
44854;SDS011;30591;48.228;16.398;2023-02-17T03:16:37;53.00;;;26.63;;
44854;SDS011;30591;48.228;16.398;2023-02-17T03:19:07;51.07;;;25.83;;
44854;SDS011;30591;48.228;16.398;2023-02-17T03:21:41;49.73;;;25.33;;
44854;SDS011;30591;48.228;16.398;2023-02-17T03:24:15;53.47;;;25.57;;
44854;SDS011;30591;48.228;16.398;2023-02-17T03:26:42;52.97;;;27.03;;
44854;SDS011;30591;48.228;16.398;2023-02-17T03:29:10;52.20;;;26.00;;
44854;SDS011;30591;48.228;16.398;2023-02-17T03:31:37;50.77;;;25.33;;
44854;SDS011;30591;48.228;16.398;2023-02-17T03:34:06;49.97;;;25.13;;
44854;SDS011;30591;48.228;16.398;2023-02-17T03:36:34;46.80;;;23.97;;
44854;SDS011;30591;48.228;16.398;2023-02-17T03:39:02;50.30;;;24.27;;
44854;SDS011;30591;48.228;16.398;2023-02-17T03:41:29;47.33;;;24.50;;
44854;SDS011;30591;48.228;16.398;2023-02-17T03:43:57;48.63;;;24.60;;
44854;SDS011;30591;48.228;16.398;2023-02-17T03:46:24;47.70;;;23.57;;
44854;SDS011;30591;48.228;16.398;2023-02-17T03:48:51;41.67;;;22.10;;
44854;SDS011;30591;48.228;16.398;2023-02-17T03:51:20;43.70;;;22.47;;
44854;SDS011;30591;48.228;16.398;2023-02-17T03:53:48;47.30;;;22.60;;
44854;SDS011;30591;48.228;16.398;2023-02-17T03:56:18;46.00;;;22.67;;
44854;SDS011;30591;48.228;16.398;2023-02-17T03:58:45;40.33;;;21.37;;
44854;SDS011;30591;48.228;16.398;2023-02-17T04:01:12;48.23;;;22.23;;
44854;SDS011;30591;48.228;16.398;2023-02-17T04:03:40;46.63;;;22.93;;
44854;SDS011;30591;48.228;16.398;2023-02-17T04:06:08;45.53;;;22.83;;
44854;SDS011;30591;48.228;16.398;2023-02-17T04:08:37;44.43;;;23.17;;
44854;SDS011;30591;48.228;16.398;2023-02-17T04:11:07;52.03;;;25.90;;
44854;SDS011;30591;48.228;16.398;2023-02-17T04:13:36;51.03;;;24.27;;
44854;SDS011;30591;48.228;16.398;2023-02-17T04:16:05;50.17;;;24.67;;
44854;SDS011;30591;48.228;16.398;2023-02-17T04:18:34;50.27;;;24.83;;
44854;SDS011;30591;48.228;16.398;2023-02-17T04:21:02;51.10;;;25.10;;
44854;SDS011;30591;48.228;16.398;2023-02-17T04:23:31;48.33;;;23.67;;
44854;SDS011;30591;48.228;16.398;2023-02-17T04:25:59;54.00;;;26.53;;
44854;SDS011;30591;48.228;16.398;2023-02-17T04:28:26;57.87;;;27.47;;
44854;SDS011;30591;48.228;16.398;2023-02-17T04:30:56;58.43;;;28.77;;
44854;SDS011;30591;48.228;16.398;2023-02-17T04:33:25;53.17;;;27.07;;
44854;SDS011;30591;48.228;16.398;2023-02-17T04:35:53;58.33;;;26.93;;
44854;SDS011;30591;48.228;16.398;2023-02-17T04:38:31;57.70;;;28.63;;
44854;SDS011;30591;48.228;16.398;2023-02-17T04:40:59;57.97;;;27.17;;
44854;SDS011;30591;48.228;16.398;2023-02-17T04:43:27;56.17;;;26.73;;
44854;SDS011;30591;48.228;16.398;2023-02-17T04:45:55;54.13;;;26.70;;
44854;SDS011;30591;48.228;16.398;2023-02-17T04:48:24;57.63;;;26.63;;
44854;SDS011;30591;48.228;16.398;2023-02-17T04:50:51;66.70;;;32.20;;
44854;SDS011;30591;48.228;16.398;2023-02-17T04:53:19;71.07;;;36.83;;
44854;SDS011;30591;48.228;16.398;2023-02-17T04:55:50;67.93;;;33.10;;
44854;SDS011;30591;48.228;16.398;2023-02-17T04:58:18;66.60;;;32.10;;
44854;SDS011;30591;48.228;16.398;2023-02-17T05:00:46;102.83;;;47.77;;
44854;SDS011;30591;48.228;16.398;2023-02-17T05:03:15;82.07;;;38.73;;
44854;SDS011;30591;48.228;16.398;2023-02-17T05:05:43;71.23;;;34.50;;
44854;SDS011;30591;48.228;16.398;2023-02-17T05:08:10;60.93;;;29.03;;
44854;SDS011;30591;48.228;16.398;2023-02-17T05:10:38;60.63;;;29.70;;
44854;SDS011;30591;48.228;16.398;2023-02-17T05:13:05;58.30;;;27.13;;
44854;SDS011;30591;48.228;16.398;2023-02-17T05:15:32;59.93;;;27.67;;
44854;SDS011;30591;48.228;16.398;2023-02-17T05:18:00;56.90;;;28.13;;
44854;SDS011;30591;48.228;16.398;2023-02-17T05:20:28;54.60;;;26.53;;
44854;SDS011;30591;48.228;16.398;2023-02-17T05:22:55;55.93;;;27.37;;
44854;SDS011;30591;48.228;16.398;2023-02-17T05:25:23;54.10;;;26.67;;
44854;SDS011;30591;48.228;16.398;2023-02-17T05:27:50;55.87;;;29.07;;
44854;SDS011;30591;48.228;16.398;2023-02-17T05:30:17;56.57;;;27.17;;
44854;SDS011;30591;48.228;16.398;2023-02-17T05:32:44;57.93;;;28.90;;
44854;SDS011;30591;48.228;16.398;2023-02-17T05:35:12;64.13;;;29.97;;
44854;SDS011;30591;48.228;16.398;2023-02-17T05:37:39;60.27;;;30.40;;
44854;SDS011;30591;48.228;16.398;2023-02-17T05:40:06;56.37;;;27.97;;
44854;SDS011;30591;48.228;16.398;2023-02-17T05:42:34;56.03;;;28.93;;
44854;SDS011;30591;48.228;16.398;2023-02-17T05:45:02;57.23;;;29.00;;
44854;SDS011;30591;48.228;16.398;2023-02-17T05:47:30;56.23;;;27.77;;
44854;SDS011;30591;48.228;16.398;2023-02-17T05:49:57;57.90;;;28.67;;
44854;SDS011;30591;48.228;16.398;2023-02-17T05:52:27;57.13;;;27.10;;
44854;SDS011;30591;48.228;16.398;2023-02-17T05:54:54;57.53;;;26.43;;
44854;SDS011;30591;48.228;16.398;2023-02-17T05:57:21;51.33;;;25.53;;
44854;SDS011;30591;48.228;16.398;2023-02-17T05:59:48;53.63;;;26.30;;
44854;SDS011;30591;48.228;16.398;2023-02-17T06:02:16;54.03;;;27.17;;
44854;SDS011;30591;48.228;16.398;2023-02-17T06:04:43;57.07;;;28.07;;
44854;SDS011;30591;48.228;16.398;2023-02-17T06:07:11;58.13;;;27.00;;
44854;SDS011;30591;48.228;16.398;2023-02-17T06:09:38;53.37;;;26.10;;
44854;SDS011;30591;48.228;16.398;2023-02-17T06:12:05;54.20;;;26.20;;
44854;SDS011;30591;48.228;16.398;2023-02-17T06:14:32;52.53;;;25.67;;
44854;SDS011;30591;48.228;16.398;2023-02-17T06:17:00;53.70;;;26.53;;
44854;SDS011;30591;48.228;16.398;2023-02-17T06:19:29;54.33;;;26.93;;
44854;SDS011;30591;48.228;16.398;2023-02-17T06:21:56;58.33;;;28.03;;
44854;SDS011;30591;48.228;16.398;2023-02-17T06:24:23;61.63;;;29.20;;
44854;SDS011;30591;48.228;16.398;2023-02-17T06:26:51;98.53;;;39.07;;
44854;SDS011;30591;48.228;16.398;2023-02-17T06:29:18;105.77;;;42.80;;
44854;SDS011;30591;48.228;16.398;2023-02-17T06:31:45;74.80;;;34.90;;
44854;SDS011;30591;48.228;16.398;2023-02-17T06:34:13;71.07;;;34.37;;
44854;SDS011;30591;48.228;16.398;2023-02-17T06:36:40;83.50;;;38.27;;
44854;SDS011;30591;48.228;16.398;2023-02-17T06:39:07;85.83;;;39.43;;
44854;SDS011;30591;48.228;16.398;2023-02-17T06:41:34;77.30;;;36.60;;
44854;SDS011;30591;48.228;16.398;2023-02-17T06:44:02;76.80;;;35.67;;
44854;SDS011;30591;48.228;16.398;2023-02-17T06:46:30;71.97;;;34.83;;
44854;SDS011;30591;48.228;16.398;2023-02-17T06:48:57;67.93;;;32.47;;
44854;SDS011;30591;48.228;16.398;2023-02-17T06:51:26;67.90;;;33.40;;
44854;SDS011;30591;48.228;16.398;2023-02-17T06:53:54;66.53;;;33.93;;
44854;SDS011;30591;48.228;16.398;2023-02-17T06:56:21;70.50;;;33.03;;
44854;SDS011;30591;48.228;16.398;2023-02-17T06:58:50;69.83;;;36.13;;
44854;SDS011;30591;48.228;16.398;2023-02-17T07:01:18;61.77;;;32.73;;
44854;SDS011;30591;48.228;16.398;2023-02-17T07:03:48;66.90;;;33.77;;
44854;SDS011;30591;48.228;16.398;2023-02-17T07:06:15;58.47;;;31.00;;
44854;SDS011;30591;48.228;16.398;2023-02-17T07:08:42;64.97;;;33.70;;
44854;SDS011;30591;48.228;16.398;2023-02-17T07:11:11;58.70;;;30.20;;
44854;SDS011;30591;48.228;16.398;2023-02-17T07:13:40;57.57;;;30.73;;
44854;SDS011;30591;48.228;16.398;2023-02-17T07:16:08;56.20;;;29.27;;
44854;SDS011;30591;48.228;16.398;2023-02-17T07:18:38;51.63;;;26.77;;
44854;SDS011;30591;48.228;16.398;2023-02-17T07:21:06;54.67;;;26.83;;
44854;SDS011;30591;48.228;16.398;2023-02-17T07:23:34;53.37;;;28.10;;
44854;SDS011;30591;48.228;16.398;2023-02-17T07:26:03;58.87;;;29.53;;
44854;SDS011;30591;48.228;16.398;2023-02-17T07:28:34;61.70;;;29.53;;
44854;SDS011;30591;48.228;16.398;2023-02-17T07:31:07;55.33;;;29.03;;
44854;SDS011;30591;48.228;16.398;2023-02-17T07:33:39;56.73;;;29.10;;
44854;SDS011;30591;48.228;16.398;2023-02-17T07:36:12;55.93;;;29.40;;
44854;SDS011;30591;48.228;16.398;2023-02-17T07:38:40;52.10;;;28.20;;
44854;SDS011;30591;48.228;16.398;2023-02-17T07:41:09;49.43;;;26.00;;
44854;SDS011;30591;48.228;16.398;2023-02-17T07:43:39;52.50;;;27.33;;
44854;SDS011;30591;48.228;16.398;2023-02-17T07:46:07;44.23;;;23.23;;
44854;SDS011;30591;48.228;16.398;2023-02-17T07:48:36;43.87;;;24.63;;
44854;SDS011;30591;48.228;16.398;2023-02-17T07:51:05;42.13;;;23.37;;
44854;SDS011;30591;48.228;16.398;2023-02-17T07:53:33;44.97;;;23.17;;
44854;SDS011;30591;48.228;16.398;2023-02-17T07:56:02;42.00;;;25.20;;
44854;SDS011;30591;48.228;16.398;2023-02-17T07:58:34;43.23;;;23.13;;
44854;SDS011;30591;48.228;16.398;2023-02-17T08:03:43;42.27;;;22.63;;
44854;SDS011;30591;48.228;16.398;2023-02-17T08:06:12;24.87;;;12.50;;
44854;SDS011;30591;48.228;16.398;2023-02-17T08:08:41;18.40;;;9.63;;
44854;SDS011;30591;48.228;16.398;2023-02-17T08:11:28;17.67;;;8.10;;
44854;SDS011;30591;48.228;16.398;2023-02-17T08:14:19;12.87;;;7.20;;
44854;SDS011;30591;48.228;16.398;2023-02-17T08:16:47;10.77;;;6.70;;
44854;SDS011;30591;48.228;16.398;2023-02-17T08:19:15;12.23;;;6.67;;
44854;SDS011;30591;48.228;16.398;2023-02-17T08:21:42;13.20;;;6.57;;
44854;SDS011;30591;48.228;16.398;2023-02-17T08:24:09;11.13;;;7.17;;
44854;SDS011;30591;48.228;16.398;2023-02-17T08:26:38;9.00;;;6.13;;
44854;SDS011;30591;48.228;16.398;2023-02-17T08:29:05;11.73;;;6.60;;
44854;SDS011;30591;48.228;16.398;2023-02-17T08:31:34;12.37;;;7.33;;
44854;SDS011;30591;48.228;16.398;2023-02-17T08:34:03;13.37;;;7.00;;
44854;SDS011;30591;48.228;16.398;2023-02-17T08:36:32;14.63;;;6.37;;
44854;SDS011;30591;48.228;16.398;2023-02-17T08:39:08;12.97;;;6.70;;
44854;SDS011;30591;48.228;16.398;2023-02-17T08:41:38;9.70;;;6.30;;
44854;SDS011;30591;48.228;16.398;2023-02-17T08:44:11;11.27;;;6.37;;
44854;SDS011;30591;48.228;16.398;2023-02-17T08:46:41;11.67;;;5.97;;
44854;SDS011;30591;48.228;16.398;2023-02-17T08:49:10;9.83;;;5.97;;
44854;SDS011;30591;48.228;16.398;2023-02-17T08:51:37;10.10;;;6.33;;
44854;SDS011;30591;48.228;16.398;2023-02-17T08:54:05;13.57;;;6.63;;
44854;SDS011;30591;48.228;16.398;2023-02-17T08:56:33;10.40;;;5.87;;
44854;SDS011;30591;48.228;16.398;2023-02-17T08:59:02;10.27;;;5.53;;
44854;SDS011;30591;48.228;16.398;2023-02-17T09:01:30;8.90;;;5.40;;
44854;SDS011;30591;48.228;16.398;2023-02-17T09:03:58;11.27;;;6.03;;
44854;SDS011;30591;48.228;16.398;2023-02-17T09:06:38;10.87;;;6.63;;
44854;SDS011;30591;48.228;16.398;2023-02-17T09:09:11;12.90;;;6.23;;
44854;SDS011;30591;48.228;16.398;2023-02-17T09:11:40;12.63;;;6.10;;
44854;SDS011;30591;48.228;16.398;2023-02-17T09:14:08;9.50;;;5.93;;
44854;SDS011;30591;48.228;16.398;2023-02-17T09:16:35;10.40;;;6.23;;
44854;SDS011;30591;48.228;16.398;2023-02-17T09:19:07;11.20;;;6.50;;
44854;SDS011;30591;48.228;16.398;2023-02-17T09:21:34;14.80;;;6.87;;
44854;SDS011;30591;48.228;16.398;2023-02-17T09:24:01;13.47;;;6.03;;
44854;SDS011;30591;48.228;16.398;2023-02-17T09:26:28;11.53;;;6.83;;
44854;SDS011;30591;48.228;16.398;2023-02-17T09:28:56;10.87;;;6.90;;
44854;SDS011;30591;48.228;16.398;2023-02-17T09:31:25;13.20;;;6.43;;
44854;SDS011;30591;48.228;16.398;2023-02-17T09:33:53;13.57;;;6.60;;
44854;SDS011;30591;48.228;16.398;2023-02-17T09:36:21;13.20;;;7.07;;
44854;SDS011;30591;48.228;16.398;2023-02-17T09:38:51;14.37;;;6.90;;
44854;SDS011;30591;48.228;16.398;2023-02-17T09:41:21;12.60;;;7.07;;
44854;SDS011;30591;48.228;16.398;2023-02-17T09:44:43;11.77;;;5.87;;
44854;SDS011;30591;48.228;16.398;2023-02-17T09:47:17;12.93;;;6.03;;
44854;SDS011;30591;48.228;16.398;2023-02-17T09:49:56;13.73;;;6.97;;
44854;SDS011;30591;48.228;16.398;2023-02-17T09:55:58;16.27;;;7.10;;
44854;SDS011;30591;48.228;16.398;2023-02-17T09:58:33;12.53;;;6.90;;
44854;SDS011;30591;48.228;16.398;2023-02-17T10:01:09;10.27;;;6.30;;
44854;SDS011;30591;48.228;16.398;2023-02-17T10:03:43;11.60;;;6.77;;
44854;SDS011;30591;48.228;16.398;2023-02-17T10:09:00;13.97;;;7.37;;
44854;SDS011;30591;48.228;16.398;2023-02-17T10:17:03;10.67;;;6.37;;
44854;SDS011;30591;48.228;16.398;2023-02-17T10:19:51;10.30;;;6.50;;
44854;SDS011;30591;48.228;16.398;2023-02-17T10:22:28;13.57;;;6.80;;
44854;SDS011;30591;48.228;16.398;2023-02-17T10:24:59;11.77;;;6.60;;
44854;SDS011;30591;48.228;16.398;2023-02-17T10:27:31;9.77;;;6.53;;
44854;SDS011;30591;48.228;16.398;2023-02-17T10:30:27;10.73;;;7.00;;
44854;SDS011;30591;48.228;16.398;2023-02-17T10:35:44;12.10;;;6.87;;
44854;SDS011;30591;48.228;16.398;2023-02-17T10:39:02;10.90;;;6.40;;
44854;SDS011;30591;48.228;16.398;2023-02-17T10:41:10;11.50;;;6.60;;
44854;SDS011;30591;48.228;16.398;2023-02-17T10:43:40;10.23;;;6.07;;
44854;SDS011;30591;48.228;16.398;2023-02-17T10:46:10;9.80;;;5.90;;
44854;SDS011;30591;48.228;16.398;2023-02-17T10:48:51;10.63;;;6.10;;
44854;SDS011;30591;48.228;16.398;2023-02-17T10:51:27;10.90;;;6.17;;
44854;SDS011;30591;48.228;16.398;2023-02-17T10:53:59;9.07;;;5.97;;
44854;SDS011;30591;48.228;16.398;2023-02-17T10:56:46;10.80;;;6.90;;
44854;SDS011;30591;48.228;16.398;2023-02-17T11:01:47;14.30;;;6.63;;
44854;SDS011;30591;48.228;16.398;2023-02-17T11:04:14;8.47;;;5.57;;
44854;SDS011;30591;48.228;16.398;2023-02-17T11:09:24;9.37;;;5.00;;
44854;SDS011;30591;48.228;16.398;2023-02-17T11:12:02;8.13;;;5.43;;
44854;SDS011;30591;48.228;16.398;2023-02-17T11:14:37;8.70;;;5.63;;
44854;SDS011;30591;48.228;16.398;2023-02-17T11:17:46;8.13;;;5.63;;
44854;SDS011;30591;48.228;16.398;2023-02-17T11:20:08;10.47;;;5.17;;
44854;SDS011;30591;48.228;16.398;2023-02-17T11:23:03;12.20;;;5.30;;
44854;SDS011;30591;48.228;16.398;2023-02-17T11:25:54;11.33;;;4.83;;
44854;SDS011;30591;48.228;16.398;2023-02-17T11:28:25;9.87;;;5.40;;
44854;SDS011;30591;48.228;16.398;2023-02-17T11:30:55;7.00;;;4.60;;
44854;SDS011;30591;48.228;16.398;2023-02-17T11:35:58;9.23;;;4.67;;
44854;SDS011;30591;48.228;16.398;2023-02-17T11:38:40;8.57;;;4.80;;
44854;SDS011;30591;48.228;16.398;2023-02-17T11:41:10;7.50;;;4.77;;
44854;SDS011;30591;48.228;16.398;2023-02-17T11:43:38;10.27;;;4.70;;
44854;SDS011;30591;48.228;16.398;2023-02-17T11:49:06;10.80;;;4.90;;
44854;SDS011;30591;48.228;16.398;2023-02-17T12:00:01;9.00;;;4.60;;
44854;SDS011;30591;48.228;16.398;2023-02-17T12:11:29;7.57;;;5.00;;
44854;SDS011;30591;48.228;16.398;2023-02-17T12:14:19;7.57;;;4.47;;
44854;SDS011;30591;48.228;16.398;2023-02-17T12:16:58;9.37;;;4.90;;
44854;SDS011;30591;48.228;16.398;2023-02-17T12:23:17;7.47;;;4.60;;
44854;SDS011;30591;48.228;16.398;2023-02-17T12:28:04;6.57;;;4.23;;
44854;SDS011;30591;48.228;16.398;2023-02-17T12:36:32;8.13;;;2.67;;
44854;SDS011;30591;48.228;16.398;2023-02-17T12:39:10;3.53;;;2.57;;
44854;SDS011;30591;48.228;16.398;2023-02-17T12:41:47;5.60;;;3.03;;
44854;SDS011;30591;48.228;16.398;2023-02-17T12:45:15;6.97;;;2.60;;
44854;SDS011;30591;48.228;16.398;2023-02-17T12:53:02;4.23;;;2.83;;
44854;SDS011;30591;48.228;16.398;2023-02-17T12:55:40;8.07;;;3.00;;
44854;SDS011;30591;48.228;16.398;2023-02-17T12:58:18;4.60;;;2.57;;
44854;SDS011;30591;48.228;16.398;2023-02-17T13:00:53;6.57;;;2.97;;
44854;SDS011;30591;48.228;16.398;2023-02-17T13:03:42;5.13;;;3.30;;
44854;SDS011;30591;48.228;16.398;2023-02-17T13:11:28;6.70;;;3.03;;
44854;SDS011;30591;48.228;16.398;2023-02-17T13:14:10;5.93;;;2.60;;
44854;SDS011;30591;48.228;16.398;2023-02-17T13:16:53;7.10;;;2.90;;
44854;SDS011;30591;48.228;16.398;2023-02-17T13:19:28;8.03;;;3.17;;
44854;SDS011;30591;48.228;16.398;2023-02-17T13:22:00;6.13;;;3.20;;
44854;SDS011;30591;48.228;16.398;2023-02-17T13:24:36;6.87;;;2.87;;
44854;SDS011;30591;48.228;16.398;2023-02-17T13:27:18;5.27;;;2.50;;
44854;SDS011;30591;48.228;16.398;2023-02-17T13:29:58;5.63;;;3.10;;
44854;SDS011;30591;48.228;16.398;2023-02-17T13:32:30;6.83;;;3.17;;
44854;SDS011;30591;48.228;16.398;2023-02-17T13:35:01;10.53;;;3.37;;
44854;SDS011;30591;48.228;16.398;2023-02-17T13:37:52;7.17;;;2.93;;
44854;SDS011;30591;48.228;16.398;2023-02-17T13:42:55;6.17;;;3.20;;
44854;SDS011;30591;48.228;16.398;2023-02-17T13:45:26;8.10;;;2.83;;
44854;SDS011;30591;48.228;16.398;2023-02-17T13:48:13;5.07;;;3.07;;
44854;SDS011;30591;48.228;16.398;2023-02-17T13:50:53;5.20;;;3.10;;
44854;SDS011;30591;48.228;16.398;2023-02-17T13:56:10;6.13;;;3.23;;
44854;SDS011;30591;48.228;16.398;2023-02-17T13:58:50;6.90;;;3.20;;
44854;SDS011;30591;48.228;16.398;2023-02-17T14:01:18;8.10;;;3.50;;
44854;SDS011;30591;48.228;16.398;2023-02-17T14:03:54;7.83;;;2.90;;
44854;SDS011;30591;48.228;16.398;2023-02-17T14:06:37;6.63;;;3.47;;
44854;SDS011;30591;48.228;16.398;2023-02-17T14:09:21;6.77;;;3.23;;
44854;SDS011;30591;48.228;16.398;2023-02-17T14:11:57;7.00;;;3.03;;
44854;SDS011;30591;48.228;16.398;2023-02-17T14:14:30;8.67;;;3.20;;
44854;SDS011;30591;48.228;16.398;2023-02-17T14:17:04;6.17;;;3.20;;
44854;SDS011;30591;48.228;16.398;2023-02-17T14:19:45;7.40;;;2.87;;
44854;SDS011;30591;48.228;16.398;2023-02-17T14:22:22;6.97;;;3.13;;
44854;SDS011;30591;48.228;16.398;2023-02-17T14:25:02;4.77;;;3.20;;
44854;SDS011;30591;48.228;16.398;2023-02-17T14:27:44;9.57;;;4.50;;
44854;SDS011;30591;48.228;16.398;2023-02-17T14:32:42;9.70;;;5.00;;
44854;SDS011;30591;48.228;16.398;2023-02-17T14:37:41;7.43;;;3.00;;
44854;SDS011;30591;48.228;16.398;2023-02-17T14:40:16;6.60;;;2.93;;
44854;SDS011;30591;48.228;16.398;2023-02-17T14:42:48;4.60;;;2.50;;
44854;SDS011;30591;48.228;16.398;2023-02-17T14:45:16;4.37;;;2.50;;
44854;SDS011;30591;48.228;16.398;2023-02-17T14:47:45;6.53;;;3.03;;
44854;SDS011;30591;48.228;16.398;2023-02-17T14:50:12;6.57;;;2.27;;
44854;SDS011;30591;48.228;16.398;2023-02-17T14:52:44;5.97;;;3.27;;
44854;SDS011;30591;48.228;16.398;2023-02-17T14:55:37;4.57;;;2.60;;
44854;SDS011;30591;48.228;16.398;2023-02-17T14:58:07;5.47;;;3.00;;
44854;SDS011;30591;48.228;16.398;2023-02-17T15:00:44;9.13;;;3.00;;
44854;SDS011;30591;48.228;16.398;2023-02-17T15:03:11;6.03;;;2.87;;
44854;SDS011;30591;48.228;16.398;2023-02-17T15:05:39;6.27;;;2.73;;
44854;SDS011;30591;48.228;16.398;2023-02-17T15:08:10;4.23;;;2.50;;
44854;SDS011;30591;48.228;16.398;2023-02-17T15:10:41;5.87;;;2.87;;
44854;SDS011;30591;48.228;16.398;2023-02-17T15:13:13;3.97;;;2.60;;
44854;SDS011;30591;48.228;16.398;2023-02-17T15:15:41;9.10;;;3.40;;
44854;SDS011;30591;48.228;16.398;2023-02-17T15:18:10;4.57;;;2.60;;
44854;SDS011;30591;48.228;16.398;2023-02-17T15:20:39;7.43;;;3.07;;
44854;SDS011;30591;48.228;16.398;2023-02-17T15:23:10;4.37;;;2.50;;
44854;SDS011;30591;48.228;16.398;2023-02-17T15:25:40;5.27;;;2.80;;
44854;SDS011;30591;48.228;16.398;2023-02-17T15:28:13;4.90;;;2.30;;
44854;SDS011;30591;48.228;16.398;2023-02-17T15:30:45;4.63;;;2.43;;
44854;SDS011;30591;48.228;16.398;2023-02-17T15:33:20;9.33;;;2.60;;
44854;SDS011;30591;48.228;16.398;2023-02-17T15:35:50;5.83;;;2.60;;
44854;SDS011;30591;48.228;16.398;2023-02-17T15:38:22;4.47;;;2.57;;
44854;SDS011;30591;48.228;16.398;2023-02-17T15:40:49;7.53;;;2.83;;
44854;SDS011;30591;48.228;16.398;2023-02-17T15:43:19;5.73;;;2.97;;
44854;SDS011;30591;48.228;16.398;2023-02-17T15:45:48;4.33;;;2.10;;
44854;SDS011;30591;48.228;16.398;2023-02-17T15:48:19;4.33;;;2.53;;
44854;SDS011;30591;48.228;16.398;2023-02-17T15:50:50;6.30;;;2.77;;
44854;SDS011;30591;48.228;16.398;2023-02-17T15:53:18;7.83;;;2.40;;
44854;SDS011;30591;48.228;16.398;2023-02-17T15:55:46;5.13;;;2.40;;
44854;SDS011;30591;48.228;16.398;2023-02-17T15:58:17;4.93;;;2.37;;
44854;SDS011;30591;48.228;16.398;2023-02-17T16:00:47;6.63;;;2.60;;
44854;SDS011;30591;48.228;16.398;2023-02-17T16:03:17;7.77;;;2.47;;
44854;SDS011;30591;48.228;16.398;2023-02-17T16:05:44;5.33;;;2.40;;
44854;SDS011;30591;48.228;16.398;2023-02-17T16:08:11;5.77;;;2.23;;
44854;SDS011;30591;48.228;16.398;2023-02-17T16:10:39;5.97;;;2.40;;
44854;SDS011;30591;48.228;16.398;2023-02-17T16:13:09;4.10;;;2.43;;
44854;SDS011;30591;48.228;16.398;2023-02-17T16:15:40;9.10;;;2.80;;
44854;SDS011;30591;48.228;16.398;2023-02-17T16:18:29;3.37;;;2.40;;
44854;SDS011;30591;48.228;16.398;2023-02-17T16:20:56;4.20;;;1.90;;
44854;SDS011;30591;48.228;16.398;2023-02-17T16:23:24;4.10;;;2.40;;